createdAt,value
2023-09-20T00:00:03.172Z,1012.9
2023-09-20T00:05:03.092Z,1012.93
2023-09-20T00:10:03.271Z,1012.98
2023-09-20T00:15:03.194Z,1013.04
2023-09-20T00:20:03.558Z,1012.94
2023-09-20T00:25:02.999Z,1013.07
2023-09-20T00:30:03.141Z,1013.3
2023-09-20T00:35:04.094Z,1013.3
2023-09-20T00:40:05.062Z,1013.26
2023-09-20T00:45:02.965Z,1013.17
2023-09-20T00:50:03.172Z,1013.29
2023-09-20T00:55:03.024Z,1013.21
2023-09-20T01:00:03.220Z,1013.31
2023-09-20T01:05:03.049Z,1013.29
2023-09-20T01:10:03.124Z,1013.3
2023-09-20T01:15:02.939Z,1013.37
2023-09-20T01:20:03.150Z,1013.38
2023-09-20T01:25:03.054Z,1013.5
2023-09-20T01:30:03.105Z,1013.58
2023-09-20T01:35:03.054Z,1013.5
2023-09-20T01:40:03.166Z,1013.59
2023-09-20T01:45:02.926Z,1013.59
2023-09-20T01:50:03.176Z,1013.66
2023-09-20T01:55:03.024Z,1013.65
2023-09-20T02:00:03.085Z,1013.69
2023-09-20T02:05:03.090Z,1013.81
2023-09-20T02:10:03.234Z,1013.79
2023-09-20T02:15:03.071Z,1013.77
2023-09-20T02:20:03.309Z,1013.86
2023-09-20T02:25:02.995Z,1013.91
2023-09-20T02:30:03.235Z,1013.89
2023-09-20T02:35:03.085Z,1013.75
2023-09-20T02:40:03.067Z,1013.73
2023-09-20T02:45:03.161Z,1013.69
2023-09-20T02:50:03.239Z,1013.65
2023-09-20T02:55:03.016Z,1013.63
2023-09-20T03:00:03.325Z,1013.61
2023-09-20T03:05:03.056Z,1013.61
2023-09-20T03:10:03.116Z,1013.64
2023-09-20T03:15:02.954Z,1013.62
2023-09-20T03:20:03.200Z,1013.6
2023-09-20T03:25:03.095Z,1013.66
2023-09-20T03:30:03.096Z,1013.69
2023-09-20T03:35:03.099Z,1013.76
2023-09-20T03:40:02.975Z,1013.75
2023-09-20T03:45:02.871Z,1013.77
2023-09-20T03:50:03.050Z,1013.71
2023-09-20T03:55:03.002Z,1013.67
2023-09-20T04:00:03.048Z,1013.66
2023-09-20T04:05:03.003Z,1013.6
2023-09-20T04:10:03.745Z,1013.64
2023-09-20T04:15:02.949Z,1013.68
2023-09-20T04:20:03.140Z,1013.61
2023-09-20T04:25:02.923Z,1013.53
2023-09-20T04:30:03.093Z,1013.59
2023-09-20T04:35:03.271Z,1013.63
2023-09-20T04:40:03.038Z,1013.66
2023-09-20T04:45:02.978Z,1013.68
2023-09-20T04:50:03.062Z,1013.55
2023-09-20T04:55:02.960Z,1013.42
2023-09-20T05:00:03.048Z,1013.42
2023-09-20T05:05:03.018Z,1013.44
2023-09-20T05:10:03.032Z,1013.47
2023-09-20T05:15:02.994Z,1013.52
2023-09-20T05:20:03.055Z,1013.52
2023-09-20T05:25:03.110Z,1013.48
2023-09-20T05:30:03.149Z,1013.38
2023-09-20T05:35:03.011Z,1013.41
2023-09-20T05:40:02.994Z,1013.43
2023-09-20T05:45:02.944Z,1013.33
2023-09-20T05:50:03.076Z,1013.3
2023-09-20T05:55:02.978Z,1013.24
2023-09-20T06:00:03.083Z,1013.24
2023-09-20T06:05:03.008Z,1013.19
2023-09-20T06:10:03.095Z,1013.08
2023-09-20T06:15:05.129Z,1013.03
2023-09-20T06:20:06.549Z,1013.06
2023-09-20T06:25:03.086Z,1012.9
2023-09-20T06:30:03.817Z,1012.86
2023-09-20T06:35:03.171Z,1012.91
2023-09-20T06:40:04.150Z,1012.98
2023-09-20T06:45:03.224Z,1012.99
2023-09-20T06:50:04.204Z,1013.03
2023-09-20T06:55:03.030Z,1013.04
2023-09-20T07:00:04.031Z,1013.04
2023-09-20T07:05:02.997Z,1013.07
2023-09-20T07:10:03.984Z,1013.02
2023-09-20T07:15:03.023Z,1012.99
2023-09-20T07:20:04.887Z,1012.96
2023-09-20T07:25:03.155Z,1012.94
2023-09-20T07:30:04.080Z,1012.97
2023-09-20T07:35:03.160Z,1012.99
2023-09-20T07:40:04.048Z,1013.0
2023-09-20T07:45:04.046Z,1012.96
2023-09-20T07:50:04.045Z,1013.02
2023-09-20T07:55:02.981Z,1013.03
2023-09-20T08:00:04.164Z,1013.18
2023-09-20T08:05:08.028Z,1013.19
2023-09-20T08:10:05.161Z,1013.21
2023-09-20T08:15:03.165Z,1013.28
2023-09-20T08:20:04.422Z,1013.28
2023-09-20T08:25:03.001Z,1013.42
2023-09-20T08:30:04.053Z,1013.38
2023-09-20T08:35:03.030Z,1013.38
2023-09-20T08:40:04.085Z,1013.37
2023-09-20T08:45:03.149Z,1013.56
2023-09-20T08:50:04.096Z,1013.7
2023-09-20T08:55:04.219Z,1013.72
2023-09-20T09:00:06.391Z,1013.79
2023-09-20T09:05:03.093Z,1013.83
2023-09-20T09:10:04.117Z,1013.91
2023-09-20T09:15:03.139Z,1013.97
2023-09-20T09:20:04.142Z,1014.05
2023-09-20T09:25:03.292Z,1014.14
2023-09-20T09:30:06.153Z,1014.15
2023-09-20T09:35:03.060Z,1014.21
2023-09-20T09:40:04.119Z,1014.25
2023-09-20T09:45:03.077Z,1014.34
2023-09-20T09:50:04.183Z,1014.5
2023-09-20T09:55:03.048Z,1014.59
2023-09-20T10:00:04.112Z,1014.66
2023-09-20T10:05:03.011Z,1014.68
2023-09-20T10:10:03.995Z,1014.71
2023-09-20T10:15:03.068Z,1014.7
2023-09-20T10:20:04.168Z,1014.71
2023-09-20T10:25:03.087Z,1014.81
2023-09-20T10:30:04.069Z,1014.86
2023-09-20T10:35:03.055Z,1014.96
2023-09-20T10:40:04.123Z,1015.04
2023-09-20T10:45:03.126Z,1015.13
2023-09-20T10:50:03.990Z,1015.12
2023-09-20T10:55:03.076Z,1015.16
2023-09-20T11:00:04.265Z,1015.2
2023-09-20T11:05:03.123Z,1015.28
2023-09-20T11:10:04.146Z,1015.35
2023-09-20T11:15:03.116Z,1015.39
2023-09-20T11:20:09.093Z,1015.45
2023-09-20T11:25:03.104Z,1015.53
2023-09-20T11:30:04.195Z,1015.58
2023-09-20T11:35:03.065Z,1015.57
2023-09-20T11:40:04.206Z,1015.61
2023-09-20T11:45:17.294Z,1015.57
2023-09-20T11:50:04.029Z,1015.51
2023-09-20T11:55:03.105Z,1015.59
2023-09-20T12:00:04.178Z,1015.59
2023-09-20T12:05:03.080Z,1015.64
2023-09-20T12:10:04.116Z,1015.66
2023-09-20T12:15:03.007Z,1015.68
2023-09-20T12:20:04.111Z,1015.7
2023-09-20T12:25:03.034Z,1015.72
2023-09-20T12:30:04.169Z,1015.7
2023-09-20T12:35:03.103Z,1015.71
2023-09-20T12:40:04.249Z,1015.7
2023-09-20T12:45:03.013Z,1015.69
2023-09-20T12:50:04.204Z,1015.69
2023-09-20T12:55:03.242Z,1015.68
2023-09-20T13:00:05.168Z,1015.68
2023-09-20T13:05:03.066Z,1015.66
2023-09-20T13:10:04.218Z,1015.72
2023-09-20T13:15:03.105Z,1015.74
2023-09-20T13:20:04.088Z,1015.74
2023-09-20T13:25:03.053Z,1015.68
2023-09-20T13:30:04.202Z,1015.7
2023-09-20T13:35:03.151Z,1015.62
2023-09-20T13:40:04.240Z,1015.52
2023-09-20T13:45:03.037Z,1015.52
2023-09-20T13:50:04.174Z,1015.52
2023-09-20T13:55:03.046Z,1015.49
2023-09-20T14:00:04.088Z,1015.51
2023-09-20T14:05:03.090Z,1015.47
2023-09-20T14:10:04.193Z,1015.5
2023-09-20T14:15:03.159Z,1015.43
2023-09-20T14:20:04.237Z,1015.43
2023-09-20T14:25:03.088Z,1015.38
2023-09-20T14:30:04.176Z,1015.43
2023-09-20T14:35:03.108Z,1015.37
2023-09-20T14:40:04.574Z,1015.31
2023-09-20T14:45:03.161Z,1015.23
2023-09-20T14:50:04.224Z,1015.15
2023-09-20T14:55:03.171Z,1015.06
2023-09-20T15:00:06.168Z,1015.03
2023-09-20T15:05:03.101Z,1014.92
2023-09-20T15:10:04.128Z,1014.79
2023-09-20T15:15:03.072Z,1014.68
2023-09-20T15:20:04.079Z,1014.61
2023-09-20T15:25:03.248Z,1014.51
2023-09-20T15:30:06.197Z,1014.42
2023-09-20T15:35:03.150Z,1014.28
2023-09-20T15:40:04.103Z,1014.1
2023-09-20T15:45:03.293Z,1013.98
2023-09-20T15:50:04.132Z,1013.87
2023-09-20T15:55:03.008Z,1013.81
2023-09-20T16:00:04.120Z,1013.69
2023-09-20T16:05:03.067Z,1013.6
2023-09-20T16:10:04.201Z,1013.48
2023-09-20T16:15:03.195Z,1013.41
2023-09-20T16:20:04.254Z,1013.27
2023-09-20T16:25:03.239Z,1013.24
2023-09-20T16:30:04.273Z,1013.13
2023-09-20T16:35:03.085Z,1013.06
2023-09-20T16:40:04.219Z,1012.97
2023-09-20T16:45:03.056Z,1012.9
2023-09-20T16:50:04.462Z,1012.81
2023-09-20T16:55:02.965Z,1012.64
2023-09-20T17:00:04.161Z,1012.58
2023-09-20T17:05:03.254Z,1012.45
2023-09-20T17:10:04.122Z,1012.3
2023-09-20T17:15:03.166Z,1012.25
2023-09-20T17:20:04.197Z,1012.16
2023-09-20T17:25:03.011Z,1012.05
2023-09-20T17:30:04.269Z,1012.03
2023-09-20T17:35:03.090Z,1011.88
2023-09-20T17:40:04.168Z,1011.76
2023-09-20T17:45:02.977Z,1011.78
2023-09-20T17:50:04.156Z,1011.81
2023-09-20T17:55:03.188Z,1011.87
2023-09-20T18:00:04.211Z,1011.94
2023-09-20T18:05:03.117Z,1011.85
2023-09-20T18:10:04.309Z,1011.84
2023-09-20T18:15:03.132Z,1011.67
2023-09-20T18:20:04.301Z,1011.55
2023-09-20T18:25:03.141Z,1011.63
2023-09-20T18:30:04.179Z,1011.54
2023-09-20T18:35:03.035Z,1011.48
2023-09-20T18:40:04.323Z,1011.33
2023-09-20T18:45:03.184Z,1011.07
2023-09-20T18:50:04.157Z,1010.99
2023-09-20T18:55:03.111Z,1010.98
2023-09-20T19:00:06.211Z,1010.99
2023-09-20T19:05:03.099Z,1010.96
2023-09-20T19:10:04.228Z,1010.98
2023-09-20T19:15:03.085Z,1010.93
2023-09-20T19:20:04.211Z,1011.3
2023-09-20T19:25:03.035Z,1011.41
2023-09-20T19:30:04.317Z,1011.34
2023-09-20T19:35:03.018Z,1011.58
2023-09-20T19:40:04.129Z,1011.79
2023-09-20T19:45:03.107Z,1011.97
2023-09-20T19:50:04.131Z,1011.97
2023-09-20T19:55:03.053Z,1011.99
2023-09-20T20:00:04.376Z,1011.97
2023-09-20T20:05:03.064Z,1011.77
2023-09-20T20:10:04.159Z,1012.04
2023-09-20T20:15:03.093Z,1012.37
2023-09-20T20:20:04.220Z,1012.44
2023-09-20T20:25:03.089Z,1012.61
2023-09-20T20:30:04.147Z,1012.84
2023-09-20T20:35:03.199Z,1013.08
2023-09-20T20:40:04.218Z,1012.94
2023-09-20T20:45:03.262Z,1012.6
2023-09-20T20:50:04.229Z,1012.6
2023-09-20T20:55:03.093Z,1012.56
2023-09-20T21:00:03.876Z,1012.39
2023-09-20T21:05:03.118Z,1012.15
2023-09-20T21:10:04.175Z,1012.15
2023-09-20T21:15:03.180Z,1012.13
2023-09-20T21:20:04.236Z,1012.33
2023-09-20T21:25:03.027Z,1012.35
2023-09-20T21:30:04.204Z,1012.41
2023-09-20T21:35:03.235Z,1012.33
2023-09-20T21:40:04.273Z,1012.28
2023-09-20T21:45:03.137Z,1012.54
2023-09-20T21:50:04.169Z,1012.48
2023-09-20T21:55:03.162Z,1012.39
2023-09-20T22:00:04.426Z,1012.2
2023-09-20T22:05:03.121Z,1011.96
2023-09-20T22:10:04.097Z,1011.9
2023-09-20T22:15:03.225Z,1012.1
2023-09-20T22:20:04.279Z,1012.16
2023-09-20T22:25:03.130Z,1011.99
2023-09-20T22:30:06.290Z,1012.22
2023-09-20T22:35:03.190Z,1012.53
2023-09-20T22:40:04.325Z,1012.58
2023-09-20T22:45:03.228Z,1012.41
2023-09-20T22:50:04.365Z,1012.34
2023-09-20T22:55:03.258Z,1012.36
2023-09-20T23:00:04.226Z,1012.63
2023-09-20T23:05:04.228Z,1012.75
2023-09-20T23:10:04.497Z,1012.88
2023-09-20T23:15:03.155Z,1013.0
2023-09-20T23:20:04.252Z,1013.31
2023-09-20T23:25:03.138Z,1013.35
2023-09-20T23:30:03.983Z,1013.25
2023-09-20T23:35:03.195Z,1013.27
2023-09-20T23:40:04.264Z,1013.42
2023-09-20T23:45:03.303Z,1013.51
2023-09-20T23:50:04.418Z,1013.5
2023-09-20T23:55:03.084Z,1013.52
